createdAt,value
2018-11-10T00:02:28.597Z,100344.41
2018-11-10T00:04:57.517Z,100343.97
2018-11-10T00:07:26.437Z,100335.85
2018-11-10T00:10:11.172Z,100332.86
2018-11-10T00:12:40.125Z,100328.59
2018-11-10T00:15:11.041Z,100330.29
2018-11-10T00:17:39.982Z,100324.31
2018-11-10T00:20:09.013Z,100317.03
2018-11-10T00:22:39.044Z,100312.77
2018-11-10T00:25:09.349Z,100309.31
2018-11-10T00:27:38.274Z,100302.47
2018-11-10T00:30:08.901Z,100297.78
2018-11-10T00:32:37.821Z,100303.30
2018-11-10T00:35:06.950Z,100300.75
2018-11-10T00:37:35.886Z,100304.10
2018-11-10T00:40:05.361Z,100305.00
2018-11-10T00:42:34.293Z,100302.04
2018-11-10T00:45:03.274Z,100292.62
2018-11-10T00:47:32.179Z,100293.92
2018-11-10T00:50:01.095Z,100291.30
2018-11-10T00:52:30.019Z,100292.99
2018-11-10T00:54:58.953Z,100292.16
2018-11-10T00:57:27.929Z,100292.56
2018-11-10T00:59:56.854Z,100281.89
2018-11-10T01:02:25.769Z,100283.61
2018-11-10T01:04:54.693Z,100273.78
2018-11-10T01:07:23.594Z,100264.37
2018-11-10T01:09:52.521Z,100268.22
2018-11-10T01:12:21.424Z,100261.82
2018-11-10T01:14:50.342Z,100262.30
2018-11-10T01:17:19.241Z,100252.05
2018-11-10T01:19:48.171Z,100248.64
2018-11-10T01:22:17.057Z,100249.91
2018-11-10T01:24:45.977Z,100245.65
2018-11-10T01:27:14.896Z,100243.02
2018-11-10T01:29:43.829Z,100238.33
2018-11-10T01:32:12.736Z,100236.61
2018-11-10T01:34:41.644Z,100238.70
2018-11-10T01:37:10.553Z,100234.02
2018-11-10T01:39:39.501Z,100233.15
2018-11-10T01:42:08.422Z,100223.34
2018-11-10T01:44:37.373Z,100222.47
2018-11-10T01:47:06.305Z,100217.35
2018-11-10T01:49:35.246Z,100211.78
2018-11-10T01:52:04.187Z,100214.77
2018-11-10T01:54:33.122Z,100211.78
2018-11-10T01:57:02.025Z,100202.38
2018-11-10T01:59:30.953Z,100198.56
2018-11-10T02:01:59.881Z,100195.52
2018-11-10T02:04:28.818Z,100192.93
2018-11-10T02:06:57.712Z,100186.11
2018-11-10T02:09:26.664Z,100182.70
2018-11-10T02:11:55.566Z,100169.89
2018-11-10T02:14:24.498Z,100177.95
2018-11-10T02:16:53.444Z,100179.28
2018-11-10T02:19:22.443Z,100184.33
2018-11-10T02:21:51.386Z,100182.17
2018-11-10T02:24:20.382Z,100180.42
2018-11-10T02:26:49.325Z,100183.94
2018-11-10T02:29:18.245Z,100178.77
2018-11-10T02:31:47.200Z,100177.92
2018-11-10T02:34:16.117Z,100168.55
2018-11-10T02:36:45.062Z,100171.52
2018-11-10T02:39:13.989Z,100174.98
2018-11-10T02:41:42.928Z,100170.27
2018-11-10T02:44:11.856Z,100172.39
2018-11-10T02:46:40.777Z,100165.59
2018-11-10T02:49:09.721Z,100170.34
2018-11-10T02:51:38.657Z,100160.96
2018-11-10T02:54:07.558Z,100168.19
2018-11-10T02:56:36.508Z,100163.06
2018-11-10T02:59:05.458Z,100163.50
2018-11-10T03:01:34.397Z,100157.55
2018-11-10T03:04:03.332Z,100151.55
2018-11-10T03:06:32.240Z,100138.33
2018-11-10T03:09:01.153Z,100133.62
2018-11-10T03:11:30.112Z,100133.66
2018-11-10T03:13:59.041Z,100123.77
2018-11-10T03:16:28.019Z,100118.26
2018-11-10T03:18:56.917Z,100031.96
2018-11-10T03:21:25.853Z,100116.13
2018-11-10T03:23:54.781Z,100112.72
2018-11-10T03:26:23.717Z,100105.47
2018-11-10T03:28:52.665Z,100102.45
2018-11-10T03:31:21.766Z,100097.77
2018-11-10T03:33:50.730Z,100096.47
2018-11-10T03:36:19.657Z,100087.52
2018-11-10T03:38:48.596Z,100093.91
2018-11-10T03:41:17.553Z,100085.41
2018-11-10T03:43:46.468Z,100079.41
2018-11-10T03:46:15.415Z,100075.60
2018-11-10T03:48:44.407Z,100066.64
2018-11-10T03:51:13.284Z,100064.50
2018-11-10T03:53:42.500Z,100064.94
2018-11-10T03:56:11.436Z,100060.22
2018-11-10T03:58:40.358Z,100062.81
2018-11-10T04:01:09.294Z,100069.20
2018-11-10T04:03:38.233Z,100066.63
2018-11-10T04:06:07.167Z,100068.77
2018-11-10T04:08:36.095Z,100076.88
2018-11-10T04:11:05.278Z,100074.31
2018-11-10T04:13:34.197Z,100074.75
2018-11-10T04:16:03.145Z,100074.33
2018-11-10T04:18:32.062Z,100073.47
2018-11-10T04:21:01.001Z,100063.22
2018-11-10T04:23:29.942Z,100056.78
2018-11-10T04:25:58.882Z,100058.92
2018-11-10T04:28:27.805Z,100052.52
2018-11-10T04:30:56.709Z,100058.53
2018-11-10T04:33:25.645Z,100055.52
2018-11-10T04:35:54.577Z,100051.66
2018-11-10T04:38:23.531Z,100049.94
2018-11-10T04:40:52.449Z,100039.70
2018-11-10T04:43:21.369Z,100046.56
2018-11-10T04:45:50.285Z,100035.02
2018-11-10T04:48:19.217Z,100028.59
2018-11-10T04:50:48.153Z,100015.39
2018-11-10T04:53:17.073Z,100019.22
2018-11-10T04:55:45.964Z,100018.84
2018-11-10T04:58:14.906Z,100012.42
2018-11-10T05:00:43.796Z,100014.95
2018-11-10T05:03:12.701Z,100006.83
2018-11-10T05:05:41.606Z,99999.17
2018-11-10T05:08:10.516Z,100003.87
2018-11-10T05:10:39.429Z,99991.50
2018-11-10T05:13:08.337Z,99997.91
2018-11-10T05:15:37.241Z,99991.91
2018-11-10T05:18:06.167Z,99988.53
2018-11-10T05:20:35.075Z,99984.68
2018-11-10T05:23:04.060Z,99988.95
2018-11-10T05:25:32.909Z,99988.08
2018-11-10T05:28:01.820Z,99979.56
2018-11-10T05:30:30.713Z,99986.40
2018-11-10T05:32:59.641Z,99978.71
2018-11-10T05:35:28.551Z,99970.59
2018-11-10T05:37:57.461Z,99970.17
2018-11-10T05:40:26.413Z,99965.88
2018-11-10T05:42:55.329Z,99959.88
2018-11-10T05:45:24.247Z,99951.75
2018-11-10T05:47:53.189Z,99958.19
2018-11-10T05:50:22.098Z,99950.45
2018-11-10T05:52:51.028Z,99954.69
2018-11-10T05:55:19.934Z,99952.55
2018-11-10T05:57:48.873Z,99955.97
2018-11-10T06:00:17.789Z,99945.34
2018-11-10T06:02:46.745Z,99955.14
2018-11-10T06:05:15.666Z,99958.98
2018-11-10T06:07:44.590Z,99958.99
2018-11-10T06:10:13.633Z,99958.16
2018-11-10T06:12:43.172Z,99953.47
2018-11-10T06:15:12.102Z,99947.87
2018-11-10T06:17:41.109Z,99947.03
2018-11-10T06:20:11.666Z,99942.30
2018-11-10T06:22:40.628Z,99944.89
2018-11-10T06:25:10.482Z,99949.98
2018-11-10T06:27:39.511Z,99954.67
2018-11-10T06:30:10.492Z,99949.54
2018-11-10T06:32:39.799Z,99954.25
2018-11-10T06:35:09.118Z,99957.23
2018-11-10T06:37:38.174Z,99966.22
2018-11-10T06:40:08.861Z,99961.08
2018-11-10T06:42:37.797Z,99970.49
2018-11-10T06:45:06.818Z,99967.94
2018-11-10T06:47:36.236Z,99967.93
2018-11-10T06:50:06.686Z,99962.41
2018-11-10T06:52:35.641Z,99960.26
2018-11-10T06:55:05.193Z,99976.50
2018-11-10T06:57:34.153Z,99975.20
2018-11-10T07:00:03.345Z,99965.36
2018-11-10T07:02:32.258Z,99965.39
2018-11-10T07:05:01.185Z,99959.80
2018-11-10T07:07:30.093Z,99963.66
2018-11-10T07:09:59.042Z,99957.64
2018-11-10T07:12:27.976Z,99958.52
2018-11-10T07:14:56.917Z,99971.77
2018-11-10T07:17:25.882Z,99965.38
2018-11-10T07:19:54.762Z,99983.34
2018-11-10T07:22:23.673Z,99972.63
2018-11-10T07:24:52.663Z,99993.53
2018-11-10T07:27:21.573Z,99999.09
2018-11-10T07:29:50.508Z,99995.16
2018-11-10T07:32:19.418Z,100000.33
2018-11-10T07:34:48.361Z,100002.02
2018-11-10T07:37:17.322Z,100003.27
2018-11-10T07:39:46.232Z,100008.88
2018-11-10T07:42:15.141Z,100015.69
2018-11-10T07:44:44.066Z,99993.45
2018-11-10T07:47:12.957Z,99997.67
2018-11-10T07:49:41.878Z,99995.91
2018-11-10T07:52:10.853Z,100001.49
2018-11-10T07:54:39.829Z,100004.88
2018-11-10T07:57:09.757Z,100014.29
2018-11-10T07:59:39.022Z,100010.95
2018-11-10T08:02:08.490Z,100005.79
2018-11-10T08:04:37.436Z,100004.53
2018-11-10T08:07:06.340Z,100011.39
2018-11-10T08:09:35.371Z,100008.36
2018-11-10T08:12:04.367Z,100017.36
2018-11-10T08:14:33.282Z,100021.65
2018-11-10T08:17:02.210Z,100018.67
2018-11-10T08:19:31.142Z,100017.81
2018-11-10T08:22:00.989Z,100024.64
2018-11-10T08:24:29.932Z,100017.02
2018-11-10T08:26:58.858Z,100027.30
2018-11-10T08:29:27.786Z,100024.74
2018-11-10T08:31:56.697Z,100011.08
2018-11-10T08:34:25.637Z,100010.68
2018-11-10T08:36:54.549Z,100022.61
2018-11-10T08:39:23.582Z,100020.94
2018-11-10T08:41:52.482Z,100023.45
2018-11-10T08:44:21.463Z,100018.34
2018-11-10T08:46:50.381Z,100019.63
2018-11-10T08:49:19.460Z,100021.75
2018-11-10T08:51:48.329Z,100021.36
2018-11-10T08:54:17.301Z,100028.16
2018-11-10T08:56:46.226Z,100019.63
2018-11-10T08:59:15.262Z,100027.32
2018-11-10T09:01:44.125Z,100018.80
2018-11-10T09:04:13.054Z,100014.93
2018-11-10T09:06:41.966Z,100017.05
2018-11-10T09:09:11.633Z,100016.60
2018-11-10T09:11:40.656Z,100010.64
2018-11-10T09:14:09.749Z,100008.06
2018-11-10T09:16:38.652Z,100005.86
2018-11-10T09:19:07.630Z,100013.17
2018-11-10T09:21:36.662Z,100005.00
2018-11-10T09:24:05.803Z,100026.38
2018-11-10T09:26:34.729Z,100037.04
2018-11-10T09:29:04.165Z,100025.44
2018-11-10T09:31:33.107Z,100033.58
2018-11-10T09:34:02.017Z,100025.03
2018-11-10T09:36:31.036Z,100032.66
2018-11-10T09:38:59.937Z,100035.62
2018-11-10T09:41:28.865Z,100038.23
2018-11-10T09:43:57.764Z,100042.94
2018-11-10T09:46:26.700Z,100038.23
2018-11-10T09:48:55.706Z,100033.42
2018-11-10T09:51:24.642Z,100031.34
2018-11-10T09:53:53.553Z,100035.95
2018-11-10T09:56:22.517Z,100026.66
2018-11-10T09:58:51.425Z,100020.09
2018-11-10T10:01:20.442Z,100017.59
2018-11-10T10:03:49.324Z,100015.00
2018-11-10T10:06:18.266Z,100006.87
2018-11-10T10:08:47.201Z,99999.95
2018-11-10T10:11:16.223Z,99999.17
2018-11-10T10:13:45.149Z,99994.89
2018-11-10T10:16:14.163Z,99991.37
2018-11-10T10:18:42.990Z,99987.55
2018-11-10T10:21:11.989Z,99991.32
2018-11-10T10:23:40.900Z,99990.08
2018-11-10T10:26:09.891Z,99981.77
2018-11-10T10:28:38.882Z,99985.87
2018-11-10T10:31:08.305Z,99979.92
2018-11-10T10:33:37.349Z,99972.39
2018-11-10T10:36:06.450Z,99969.33
2018-11-10T10:38:35.961Z,99973.14
2018-11-10T10:41:04.965Z,99973.93
2018-11-10T10:43:33.887Z,99971.60
2018-11-10T10:46:02.821Z,99970.94
2018-11-10T10:48:31.818Z,99972.27
2018-11-10T10:51:00.822Z,99972.77
2018-11-10T10:53:30.686Z,99968.80
2018-11-10T10:56:00.605Z,99961.20
2018-11-10T10:58:30.501Z,99962.48
2018-11-10T11:01:05.472Z,99956.48
2018-11-10T11:03:39.853Z,99963.83
2018-11-10T11:06:08.819Z,99966.70
2018-11-10T11:08:37.729Z,99962.84
2018-11-10T11:11:06.693Z,99962.80
2018-11-10T11:13:35.687Z,99956.91
2018-11-10T11:16:05.159Z,99959.48
2018-11-10T11:18:34.108Z,99960.02
2018-11-10T11:21:03.078Z,99956.55
2018-11-10T11:23:33.067Z,99955.52
2018-11-10T11:26:02.025Z,99951.72
2018-11-10T11:28:31.049Z,99951.73
2018-11-10T11:31:00.026Z,99957.52
2018-11-10T11:33:29.045Z,99959.31
2018-11-10T11:35:58.034Z,99963.94
2018-11-10T11:38:26.985Z,99958.81
2018-11-10T11:40:57.167Z,99961.80
2018-11-10T11:43:26.027Z,99968.80
2018-11-10T11:45:54.998Z,99954.26
2018-11-10T11:48:23.927Z,99967.91
2018-11-10T11:50:52.841Z,99971.72
2018-11-10T11:53:21.797Z,99969.46
2018-11-10T11:55:50.718Z,99982.81
2018-11-10T11:58:19.700Z,99973.90
2018-11-10T12:00:48.585Z,99972.66
2018-11-10T12:03:17.502Z,99974.40
2018-11-10T12:05:46.446Z,99970.44
2018-11-10T12:08:15.413Z,99967.45
2018-11-10T12:10:44.327Z,99973.55
2018-11-10T12:13:13.273Z,99971.83
2018-11-10T12:15:42.210Z,99965.38
2018-11-10T12:18:11.157Z,99968.02
2018-11-10T12:20:40.112Z,99971.37
2018-11-10T12:23:09.043Z,99963.59
2018-11-10T12:25:37.951Z,99966.62
2018-11-10T12:28:06.891Z,99957.25
2018-11-10T12:30:35.932Z,99964.06
2018-11-10T12:33:05.033Z,99960.52
2018-11-10T12:35:33.975Z,99955.46
2018-11-10T12:38:02.938Z,99942.13
2018-11-10T12:40:31.884Z,99947.77
2018-11-10T12:43:00.816Z,99946.98
2018-11-10T12:45:30.235Z,99945.63
2018-11-10T12:47:59.181Z,99937.48
2018-11-10T12:50:28.113Z,99945.11
2018-11-10T12:52:57.057Z,99942.08
2018-11-10T12:55:26.041Z,99936.56
2018-11-10T12:57:55.019Z,99936.55
2018-11-10T13:00:23.898Z,99939.98
2018-11-10T13:02:52.828Z,99939.13
2018-11-10T13:05:21.762Z,99937.41
2018-11-10T13:07:50.733Z,99933.03
2018-11-10T13:10:19.658Z,99925.75
2018-11-10T13:12:48.597Z,99927.89
2018-11-10T13:15:17.559Z,99933.03
2018-11-10T13:17:46.549Z,99928.27
2018-11-10T13:20:16.145Z,99932.55
2018-11-10T13:22:45.085Z,99926.08
2018-11-10T13:25:14.624Z,99926.94
2018-11-10T13:27:43.548Z,99927.37
2018-11-10T13:30:13.957Z,99926.94
2018-11-10T13:32:44.125Z,99928.22
2018-11-10T13:35:13.079Z,99931.23
2018-11-10T13:37:42.011Z,99926.95
2018-11-10T13:40:11.129Z,99926.88
2018-11-10T13:42:40.054Z,99922.99
2018-11-10T13:45:10.542Z,99922.66
2018-11-10T13:47:39.585Z,99925.75
2018-11-10T13:50:09.804Z,99918.80
2018-11-10T13:52:39.707Z,99917.42
2018-11-10T13:55:08.296Z,99926.45
2018-11-10T13:57:37.237Z,99916.56
2018-11-10T14:00:09.013Z,99924.31
2018-11-10T14:02:37.926Z,99920.51
2018-11-10T14:05:06.945Z,99916.57
2018-11-10T14:07:35.979Z,99925.50
2018-11-10T14:10:05.537Z,99920.80
2018-11-10T14:12:34.551Z,99925.08
2018-11-10T14:15:03.404Z,99923.73
2018-11-10T14:17:32.305Z,99924.11
2018-11-10T14:20:01.330Z,99919.93
2018-11-10T14:22:30.233Z,99925.81
2018-11-10T14:24:59.168Z,99921.11
2018-11-10T14:27:28.076Z,99923.62
2018-11-10T14:29:57.002Z,99916.02
2018-11-10T14:32:25.917Z,99916.87
2018-11-10T14:34:54.855Z,99919.02
2018-11-10T14:37:23.743Z,99912.17
2018-11-10T14:39:52.698Z,99908.67
2018-11-10T14:42:21.595Z,99906.91
2018-11-10T14:44:50.513Z,99916.08
2018-11-10T14:47:19.414Z,99913.89
2018-11-10T14:49:48.355Z,99918.59
2018-11-10T14:52:17.454Z,99923.30
2018-11-10T14:54:46.337Z,99922.33
2018-11-10T14:57:15.246Z,99915.97
2018-11-10T14:59:44.177Z,99919.03
2018-11-10T15:02:13.089Z,99918.58
2018-11-10T15:04:42.013Z,99922.45
2018-11-10T15:07:10.943Z,99917.36
2018-11-10T15:09:40.748Z,99916.02
2018-11-10T15:12:09.658Z,99923.89
2018-11-10T15:14:38.561Z,99927.68
2018-11-10T15:17:07.473Z,99926.94
2018-11-10T15:19:36.397Z,99926.09
2018-11-10T15:22:05.765Z,99932.55
2018-11-10T15:24:34.697Z,99935.48
2018-11-10T15:27:03.608Z,99935.94
2018-11-10T15:29:32.539Z,99943.25
2018-11-10T15:32:01.440Z,99945.30
2018-11-10T15:34:30.381Z,99946.58
2018-11-10T15:36:59.297Z,99942.63
2018-11-10T15:39:28.245Z,99937.92
2018-11-10T15:41:57.153Z,99940.91
2018-11-10T15:44:26.077Z,99942.57
2018-11-10T15:46:54.972Z,99941.23
2018-11-10T15:49:23.897Z,99942.52
2018-11-10T15:51:52.865Z,99938.98
2018-11-10T15:54:22.078Z,99938.67
2018-11-10T15:56:51.020Z,99935.66
2018-11-10T15:59:19.937Z,99938.83
2018-11-10T16:01:48.920Z,99933.64
2018-11-10T16:04:17.816Z,99940.37
2018-11-10T16:06:46.729Z,99943.64
2018-11-10T16:09:15.711Z,99943.20
2018-11-10T16:11:44.604Z,99939.36
2018-11-10T16:14:13.496Z,99941.33
2018-11-10T16:16:42.408Z,99936.52
2018-11-10T16:19:11.322Z,99937.31
2018-11-10T16:21:40.249Z,99931.33
2018-11-10T16:24:09.150Z,99925.37
2018-11-10T16:26:38.064Z,99932.61
2018-11-10T16:29:06.981Z,99920.52
2018-11-10T16:31:35.902Z,99924.64
2018-11-10T16:34:04.813Z,99928.88
2018-11-10T16:36:33.726Z,99920.41
2018-11-10T16:39:02.661Z,99925.61
2018-11-10T16:41:31.573Z,99922.45
2018-11-10T16:44:00.486Z,99915.66
2018-11-10T16:46:29.400Z,99926.67
2018-11-10T16:48:58.325Z,99927.47
2018-11-10T16:51:27.240Z,99930.47
2018-11-10T16:53:56.138Z,99935.51
2018-11-10T16:56:25.049Z,99936.41
2018-11-10T16:58:53.973Z,99933.03
2018-11-10T17:01:23.320Z,99937.95
2018-11-10T17:03:52.208Z,99934.20
2018-11-10T17:06:21.144Z,99937.16
2018-11-10T17:08:50.138Z,99931.59
2018-11-10T17:11:18.997Z,99928.58
2018-11-10T17:13:47.917Z,99927.58
2018-11-10T17:16:16.921Z,99924.89
2018-11-10T17:18:45.927Z,99918.78
2018-11-10T17:21:14.859Z,99930.83
2018-11-10T17:23:43.811Z,99924.36
2018-11-10T17:26:12.742Z,99935.43
2018-11-10T17:28:41.675Z,99937.56
2018-11-10T17:31:10.597Z,99940.50
2018-11-10T17:33:39.529Z,99927.67
2018-11-10T17:36:08.453Z,99930.67
2018-11-10T17:38:37.401Z,99931.87
2018-11-10T17:41:06.409Z,99920.31
2018-11-10T17:43:35.337Z,99923.68
2018-11-10T17:46:04.319Z,99923.87
2018-11-10T17:48:33.393Z,99923.92
2018-11-10T17:51:02.234Z,99921.73
2018-11-10T17:53:31.151Z,99923.24
2018-11-10T17:56:00.066Z,99917.44
2018-11-10T17:58:29.087Z,99907.27
2018-11-10T18:00:57.929Z,99906.97
2018-11-10T18:03:26.897Z,99907.03
2018-11-10T18:05:55.822Z,99905.75
2018-11-10T18:08:24.788Z,99921.55
2018-11-10T18:10:53.705Z,99918.92
2018-11-10T18:13:22.671Z,99923.72
2018-11-10T18:15:51.590Z,99930.53
2018-11-10T18:18:20.552Z,99929.23
2018-11-10T18:20:49.472Z,99933.53
2018-11-10T18:23:18.401Z,99930.53
2018-11-10T18:25:48.116Z,99936.90
2018-11-10T18:28:17.318Z,99941.61
2018-11-10T18:30:46.233Z,99948.98
2018-11-10T18:35:56.330Z,99942.02
2018-11-10T18:38:25.299Z,99944.92
2018-11-10T18:40:54.241Z,99944.97
2018-11-10T18:43:23.211Z,99930.34
2018-11-10T18:45:52.153Z,99931.52
2018-11-10T18:48:21.153Z,99936.45
2018-11-10T18:50:50.090Z,99936.90
2018-11-10T18:53:19.030Z,99941.11
2018-11-10T18:55:47.934Z,99939.41
2018-11-10T18:58:17.003Z,99942.67
2018-11-10T19:00:45.796Z,99941.92
2018-11-10T19:03:14.747Z,99933.78
2018-11-10T19:05:43.675Z,99940.75
2018-11-10T19:08:12.631Z,99941.70
2018-11-10T19:10:41.601Z,99944.60
2018-11-10T19:13:10.546Z,99939.83
2018-11-10T19:15:39.486Z,99928.70
2018-11-10T19:18:08.457Z,99932.19
2018-11-10T19:20:37.417Z,99932.71
2018-11-10T19:23:06.436Z,99925.86
2018-11-10T19:25:35.323Z,99922.38
2018-11-10T19:28:04.282Z,99922.45
2018-11-10T19:30:33.228Z,99881.29
2018-11-10T19:33:09.217Z,99922.55
2018-11-10T19:35:38.182Z,99932.78
2018-11-10T19:38:07.159Z,99929.78
2018-11-10T19:40:36.133Z,99928.11
2018-11-10T19:43:05.168Z,99930.68
2018-11-10T19:45:34.130Z,99934.12
2018-11-10T19:48:03.106Z,99939.20
2018-11-10T19:50:32.196Z,99942.63
2018-11-10T19:53:01.598Z,99942.67
2018-11-10T19:55:30.601Z,99952.38
2018-11-10T19:57:59.610Z,99948.19
2018-11-10T20:00:28.650Z,99905.23
2018-11-10T20:02:57.614Z,99961.90
2018-11-10T20:05:26.602Z,99956.91
2018-11-10T20:07:55.579Z,99961.56
2018-11-10T20:10:24.540Z,99961.18
2018-11-10T20:12:54.471Z,99961.47
2018-11-10T20:15:23.418Z,99964.84
2018-11-10T20:17:52.390Z,99973.13
2018-11-10T20:20:21.389Z,99979.08
2018-11-10T20:22:50.392Z,99982.93
2018-11-10T20:25:19.941Z,99980.30
2018-11-10T20:27:48.894Z,99983.77
2018-11-10T20:30:19.641Z,99982.39
2018-11-10T20:32:48.706Z,99976.45
2018-11-10T20:35:17.661Z,99975.98
2018-11-10T20:37:47.154Z,99971.30
2018-11-10T20:40:16.591Z,99970.40
2018-11-10T20:42:45.583Z,99961.79
2018-11-10T20:45:16.478Z,99967.52
2018-11-10T20:47:45.442Z,99954.51
2018-11-10T20:50:15.162Z,99955.73
2018-11-10T20:52:44.141Z,99958.52
2018-11-10T20:55:13.734Z,99958.78
2018-11-10T20:57:42.721Z,99952.42
2018-11-10T21:00:13.818Z,99953.00
2018-11-10T21:02:43.618Z,99959.22
2018-11-10T21:05:12.993Z,99963.17
2018-11-10T21:07:42.098Z,99966.98
2018-11-10T21:10:15.055Z,99964.83
2018-11-10T21:12:44.925Z,99972.39
2018-11-10T21:15:15.613Z,99966.34
2018-11-10T21:17:44.637Z,99960.72
2018-11-10T21:20:13.965Z,99955.45
2018-11-10T21:22:43.314Z,99961.09
2018-11-10T21:25:14.121Z,99969.47
2018-11-10T21:27:43.265Z,99968.61
2018-11-10T21:30:14.506Z,99966.41
2018-11-10T21:32:43.640Z,99963.27
2018-11-10T21:35:12.723Z,99959.77
2018-11-10T21:37:41.549Z,99952.95
2018-11-10T21:40:14.000Z,99946.04
2018-11-10T21:42:43.320Z,99947.66
2018-11-10T21:45:13.110Z,99941.69
2018-11-10T21:47:42.069Z,99944.68
2018-11-10T21:50:12.540Z,99955.39
2018-11-10T21:52:42.359Z,99958.82
2018-11-10T21:55:13.074Z,99955.50
2018-11-10T21:57:42.634Z,99952.07
2018-11-10T22:00:13.204Z,99953.84
2018-11-10T22:02:42.863Z,99956.18
2018-11-10T22:05:11.933Z,99942.11
2018-11-10T22:07:40.869Z,99950.97
2018-11-10T22:10:11.952Z,99948.30
2018-11-10T22:12:41.113Z,99941.66
2018-11-10T22:15:12.610Z,99940.48
2018-11-10T22:17:42.539Z,99949.31
2018-11-10T22:20:12.991Z,99941.81
2018-11-10T22:22:42.071Z,99943.48
2018-11-10T22:25:11.825Z,99943.37
2018-11-10T22:27:42.388Z,99949.38
2018-11-10T22:30:13.117Z,99952.84
2018-11-10T22:32:42.433Z,99946.05
2018-11-10T22:35:11.495Z,99950.00
2018-11-10T22:37:40.789Z,99952.15
2018-11-10T22:40:11.709Z,99955.67
2018-11-10T22:42:41.153Z,99951.81
2018-11-10T22:45:11.749Z,99951.43
2018-11-10T22:47:41.279Z,99955.66
2018-11-10T22:50:12.550Z,99950.95
2018-11-10T22:52:41.516Z,99951.70
2018-11-10T22:55:10.717Z,99952.62
2018-11-10T22:57:39.757Z,99958.23
2018-11-10T23:00:18.239Z,99962.89
2018-11-10T23:02:49.332Z,99950.77
2018-11-10T23:05:18.815Z,99949.95
2018-11-10T23:07:47.746Z,99946.10
2018-11-10T23:10:17.236Z,99948.73
2018-11-10T23:12:47.016Z,99947.81
2018-11-10T23:15:15.913Z,99959.27
2018-11-10T23:17:44.817Z,99964.41
2018-11-10T23:20:15.467Z,99959.70
2018-11-10T23:22:44.482Z,99957.56
2018-11-10T23:25:15.693Z,99957.08
2018-11-10T23:27:44.583Z,99956.11
2018-11-10T23:30:15.861Z,99964.30
2018-11-10T23:32:44.796Z,99971.09
2018-11-10T23:35:13.737Z,99964.37
2018-11-10T23:37:42.651Z,99962.26
2018-11-10T23:40:13.245Z,99961.89
2018-11-10T23:42:42.533Z,99961.03
2018-11-10T23:45:11.925Z,99963.98
2018-11-10T23:47:40.835Z,99968.22
2018-11-10T23:50:12.009Z,99967.03
2018-11-10T23:52:40.937Z,99973.07
2018-11-10T23:55:10.982Z,99967.89
2018-11-10T23:57:40.041Z,99972.93
